Time;durP1;ratioP1;P1;durP2;ratioP2;P2;SDS_P1;SDS_P2;PMS_P1;PMS_P2;Temp;Humidity;BMP_temperature;BMP_pressure;BME280_temperature;BME280_humidity;BME280_pressure;Samples;Min_cycle;Max_cycle;Signal;HPM_P1;HPM_P2
2022/06/26 00:00:37;;;;;;;;;;;;;;;;;;4995953;28;19922;-91
2022/06/26 00:03:03;;;;;;;;;;;;;;;;;;4968358;28;19909;-91
2022/06/26 00:05:32;;;;;;;;;;;;;;;;;;4967532;28;20471;-91
2022/06/26 00:07:58;;;;;;;;;;;;;;;;;;4963789;28;20433;-91
2022/06/26 00:10:23;;;;;;;;;;;;;;;;;;4965580;28;20260;-91
2022/06/26 00:12:49;;;;;;;;;;;;;;;;;;4968551;28;19914;-91
2022/06/26 00:15:15;;;;;;;;;;;;;;;;;;4973919;28;19956;-91
2022/06/26 00:17:41;;;;;;;;;;;;;;;;;;4974779;28;19925;-91
2022/06/26 00:20:07;;;;;;;;;;;;;;;;;;4967265;28;19917;-90
2022/06/26 00:22:33;;;;;;;;;;;;;;;;;;4964693;28;20352;-90
2022/06/26 00:24:59;;;;;;;;;;;;;;;;;;4965868;28;19917;-90
2022/06/26 00:27:25;;;;;;;;;;;;;;;;;;4964334;28;19929;-90
2022/06/26 00:29:51;;;;;;;;;;;;;;;;;;4995292;28;20190;-91
2022/06/26 00:32:17;;;;;;;;;;;;;;;;;;4985583;28;19910;-92
2022/06/26 00:34:42;;;;;;;;;;;;;;;;;;4985091;28;19914;-91
2022/06/26 00:37:08;;;;;;;;;;;;;;;;;;4983891;28;19913;-90
2022/06/26 00:39:34;;;;;;;;;;;;;;;;;;4986732;28;20040;-91
2022/06/26 00:42:00;;;;;;;;;;;;;;;;;;4985474;28;20289;-91
2022/06/26 00:44:26;;;;;;;;;;;;;;;;;;4967936;28;20358;-92
2022/06/26 00:46:52;;;;;;;;;;;;;;;;;;4968391;28;20017;-92
2022/06/26 00:49:18;;;;;;;;;;;;;;;;;;4967215;28;19967;-92
2022/06/26 00:51:44;;;;;;;;;;;;;;;;;;4965048;28;19968;-91
2022/06/26 00:54:10;;;;;;;;;;;;;;;;;;4989497;28;19944;-92
2022/06/26 00:56:36;;;;;;;;;;;;;;;;;;4978735;28;19949;-91
2022/06/26 00:59:02;;;;;;;;;;;;;;;;;;4980406;28;20346;-90
2022/06/26 01:01:28;;;;;;;;;;;;;;;;;;4961452;28;20379;-91
2022/06/26 01:03:53;;;;;;;;;;;;;;;;;;4976335;28;19909;-92
2022/06/26 01:06:19;;;;;;;;;;;;;;;;;;4965181;28;20377;-93
2022/06/26 01:08:45;;;;;;;;;;;;;;;;;;4964462;28;19948;-91
2022/06/26 01:11:18;;;;;;;;;;;;;;;;;;4966233;28;20283;-92
2022/06/26 01:13:44;;;;;;;;;;;;;;;;;;4964842;28;20248;-92
2022/06/26 01:16:09;;;;;;;;;;;;;;;;;;4961402;28;19917;-91
2022/06/26 01:18:36;;;;;;;;;;;;;;;;;;4966042;28;20055;-91
2022/06/26 01:21:02;;;;;;;;;;;;;;;;;;4966544;28;19967;-91
2022/06/26 01:23:27;;;;;;;;;;;;;;;;;;4978064;28;20557;-91
2022/06/26 01:25:53;;;;;;;;;;;;;;;;;;4982165;28;19917;-91
2022/06/26 01:28:19;;;;;;;;;;;;;;;;;;4969509;28;19957;-92
2022/06/26 01:30:45;;;;;;;;;;;;;;;;;;4975842;28;19960;-91
2022/06/26 01:33:11;;;;;;;;;;;;;;;;;;4981220;28;20443;-91
2022/06/26 01:35:37;;;;;;;;;;;;;;;;;;4966971;28;19956;-91
2022/06/26 01:38:03;;;;;;;;;;;;;;;;;;4961295;28;19924;-91
2022/06/26 01:40:29;;;;;;;;;;;;;;;;;;4959533;28;19968;-91
2022/06/26 01:42:55;;;;;;;;;;;;;;;;;;4978280;28;19913;-91
2022/06/26 01:45:21;;;;;;;;;;;;;;;;;;4967192;28;19944;-91
2022/06/26 01:47:47;;;;;;;;;;;;;;;;;;4959451;28;19914;-91
2022/06/26 01:50:13;;;;;;;;;;;;;;;;;;4959271;28;19921;-91
2022/06/26 01:52:39;;;;;;;;;;;;;;;;;;4968441;28;20713;-92
2022/06/26 01:55:05;;;;;;;;;;;;;;;;;;4967447;28;19917;-92
2022/06/26 01:57:31;;;;;;;;;;;;;;;;;;4974937;28;20339;-91
2022/06/26 01:59:57;;;;;;;;;;;;;;;;;;4958689;28;19910;-91
2022/06/26 02:02:23;;;;;;;;;;;;;;;;;;4965075;28;19920;-91
2022/06/26 02:04:49;;;;;;;;;;;;;;;;;;4967582;28;19921;-91
2022/06/26 02:07:15;;;;;;;;;;;;;;;;;;4967355;28;19909;-91
2022/06/26 02:15:10;;;;;;;;;;;;;;;;;;4983750;28;20384;-92
2022/06/26 02:17:36;;;;;;;;;;;;;;;;;;4965061;28;20005;-91
2022/06/26 02:20:02;;;;;;;;;;;;;;;;;;4964842;28;19949;-91
2022/06/26 02:22:28;;;;;;;;;;;;;;;;;;4979210;28;19910;-91
2022/06/26 02:24:54;;;;;;;;;;;;;;;;;;4963133;28;19922;-91
2022/06/26 02:27:20;;;;;;;;;;;;;;;;;;4966290;28;19927;-91
2022/06/26 02:29:53;;;;;;;;;;;;;;;;;;4969325;28;20106;-91
2022/06/26 02:32:19;;;;;;;;;;;;;;;;;;4970981;28;19913;-90
2022/06/26 02:34:45;;;;;;;;;;;;;;;;;;4964877;28;19910;-92
2022/06/26 02:37:11;;;;;;;;;;;;;;;;;;4962051;28;19996;-91
2022/06/26 02:39:37;;;;;;;;;;;;;;;;;;4967385;28;19914;-91
2022/06/26 02:42:03;;;;;;;;;;;;;;;;;;4980831;28;20346;-89
2022/06/26 02:44:29;;;;;;;;;;;;;;;;;;4966884;28;19920;-87
2022/06/26 02:46:55;;;;;;;;;;;;;;;;;;4966051;28;19913;-88
2022/06/26 02:49:21;;;;;;;;;;;;;;;;;;4970040;28;20280;-88
2022/06/26 02:51:47;;;;;;;;;;;;;;;;;;4957292;28;19968;-89
2022/06/26 02:54:13;;;;;;;;;;;;;;;;;;4980449;28;19933;-88
2022/06/26 02:56:39;;;;;;;;;;;;;;;;;;4984059;28;19917;-89
2022/06/26 02:59:05;;;;;;;;;;;;;;;;;;4971969;28;19944;-88
2022/06/26 03:01:31;;;;;;;;;;;;;;;;;;4970425;28;20137;-88
2022/06/26 03:03:57;;;;;;;;;;;;;;;;;;4980960;28;20266;-90
2022/06/26 03:06:23;;;;;;;;;;;;;;;;;;4966069;28;19914;-88
2022/06/26 03:08:49;;;;;;;;;;;;;;;;;;4960565;28;20189;-88
2022/06/26 03:11:15;;;;;;;;;;;;;;;;;;4963593;28;20467;-89
2022/06/26 03:13:40;;;;;;;;;;;;;;;;;;4959297;28;19913;-87
2022/06/26 03:16:06;;;;;;;;;;;;;;;;;;4970296;28;19921;-89
2022/06/26 03:18:32;;;;;;;;;;;;;;;;;;4965015;28;19968;-89
2022/06/26 03:20:58;;;;;;;;;;;;;;;;;;4964631;28;20581;-89
2022/06/26 03:24:01;;;;;;;;;;;;;;;;;;4967243;28;20268;-89
2022/06/26 03:26:13;;;;;;;;;;;;;;;;;;4981043;28;19910;-89
2022/06/26 03:28:39;;;;;;;;;;;;;;;;;;4973428;28;19932;-89
2022/06/26 03:31:05;;;;;;;;;;;;;;;;;;4967577;28;19986;-89
2022/06/26 03:33:31;;;;;;;;;;;;;;;;;;4967150;28;19917;-89
2022/06/26 03:35:58;;;;;;;;;;;;;;;;;;4981785;28;20005;-88
2022/06/26 03:38:24;;;;;;;;;;;;;;;;;;4968120;28;19910;-88
2022/06/26 03:40:50;;;;;;;;;;;;;;;;;;4963437;28;19944;-89
2022/06/26 03:43:16;;;;;;;;;;;;;;;;;;4977117;28;19988;-88
2022/06/26 03:45:42;;;;;;;;;;;;;;;;;;4984446;28;19933;-88
2022/06/26 03:48:07;;;;;;;;;;;;;;;;;;4980862;28;19921;-89
2022/06/26 03:50:33;;;;;;;;;;;;;;;;;;4976960;28;19922;-89
2022/06/26 03:52:59;;;;;;;;;;;;;;;;;;4978804;28;20266;-87
2022/06/26 03:55:25;;;;;;;;;;;;;;;;;;4983115;28;19910;-87
2022/06/26 03:57:51;;;;;;;;;;;;;;;;;;4982981;28;19919;-87
2022/06/26 04:00:17;;;;;;;;;;;;;;;;;;4966394;28;20503;-86
2022/06/26 04:02:49;;;;;;;;;;;;;;;;;;4961827;28;19953;-87
2022/06/26 04:05:15;;;;;;;;;;;;;;;;;;4964616;28;19929;-87
2022/06/26 04:07:41;;;;;;;;;;;;;;;;;;4967020;28;20288;-87
2022/06/26 04:10:07;;;;;;;;;;;;;;;;;;4966872;28;20301;-86
2022/06/26 04:12:33;;;;;;;;;;;;;;;;;;4963820;28;19910;-86
2022/06/26 04:14:59;;;;;;;;;;;;;;;;;;4967585;28;20328;-87
2022/06/26 04:17:25;;;;;;;;;;;;;;;;;;4976667;28;20104;-87
2022/06/26 04:19:51;;;;;;;;;;;;;;;;;;4980945;28;19953;-87
2022/06/26 04:22:16;;;;;;;;;;;;;;;;;;4996747;28;20603;-87
2022/06/26 04:24:42;;;;;;;;;;;;;;;;;;4983306;28;19939;-87
2022/06/26 04:27:08;;;;;;;;;;;;;;;;;;4980053;28;20301;-87
2022/06/26 04:29:34;;;;;;;;;;;;;;;;;;4983543;28;19961;-87
2022/06/26 04:32:00;;;;;;;;;;;;;;;;;;4984966;28;19924;-87
2022/06/26 04:34:26;;;;;;;;;;;;;;;;;;4964862;28;19914;-87
2022/06/26 04:36:52;;;;;;;;;;;;;;;;;;4976129;28;19913;-87
2022/06/26 04:39:18;;;;;;;;;;;;;;;;;;4973475;28;19921;-86
2022/06/26 04:41:47;;;;;;;;;;;;;;;;;;4965708;28;19920;-87
2022/06/26 04:44:13;;;;;;;;;;;;;;;;;;4959199;28;19913;-87
2022/06/26 04:46:39;;;;;;;;;;;;;;;;;;4958822;28;19913;-87
2022/06/26 04:49:05;;;;;;;;;;;;;;;;;;4965622;28;19992;-87
2022/06/26 04:51:34;;;;;;;;;;;;;;;;;;4979189;28;19926;-88
2022/06/26 04:54:00;;;;;;;;;;;;;;;;;;4960845;28;20013;-87
2022/06/26 04:56:26;;;;;;;;;;;;;;;;;;4965447;28;20016;-87
2022/06/26 04:58:52;;;;;;;;;;;;;;;;;;4964636;28;20156;-87
2022/06/26 05:01:18;;;;;;;;;;;;;;;;;;4969207;28;20369;-88
2022/06/26 05:03:44;;;;;;;;;;;;;;;;;;4961421;28;19925;-87
2022/06/26 05:06:10;;;;;;;;;;;;;;;;;;4968618;28;20179;-88
2022/06/26 05:08:36;;;;;;;;;;;;;;;;;;4963037;28;19939;-88
2022/06/26 05:11:02;;;;;;;;;;;;;;;;;;4966523;28;19921;-88
2022/06/26 05:13:28;;;;;;;;;;;;;;;;;;4966233;28;19917;-88
2022/06/26 05:15:54;;;;;;;;;;;;;;;;;;4968171;28;19910;-88
2022/06/26 05:18:20;;;;;;;;;;;;;;;;;;4964248;28;20086;-87
2022/06/26 05:20:46;;;;;;;;;;;;;;;;;;4977179;28;19977;-87
2022/06/26 05:23:12;;;;;;;;;;;;;;;;;;4967008;28;19929;-88
2022/06/26 05:25:39;;;;;;;;;;;;;;;;;;4981126;28;19953;-88
2022/06/26 05:28:05;;;;;;;;;;;;;;;;;;4961759;28;19910;-87
2022/06/26 05:30:30;;;;;;;;;;;;;;;;;;4964750;28;19965;-88
2022/06/26 05:32:56;;;;;;;;;;;;;;;;;;4964254;28;19917;-87
2022/06/26 05:35:22;;;;;;;;;;;;;;;;;;4966561;28;19914;-88
2022/06/26 05:37:48;;;;;;;;;;;;;;;;;;4962307;28;19941;-88
2022/06/26 05:40:14;;;;;;;;;;;;;;;;;;4965838;28;20021;-88
2022/06/26 05:42:40;;;;;;;;;;;;;;;;;;4976883;28;20195;-88
2022/06/26 05:45:06;;;;;;;;;;;;;;;;;;4964985;28;20429;-89
2022/06/26 05:47:32;;;;;;;;;;;;;;;;;;4964185;28;20012;-88
2022/06/26 05:49:58;;;;;;;;;;;;;;;;;;4966866;28;20004;-88
2022/06/26 05:52:24;;;;;;;;;;;;;;;;;;4967968;28;20072;-89
2022/06/26 05:54:50;;;;;;;;;;;;;;;;;;4979743;28;19913;-88
2022/06/26 05:57:16;;;;;;;;;;;;;;;;;;4980046;28;20548;-88
2022/06/26 05:59:42;;;;;;;;;;;;;;;;;;4967096;28;20274;-88
2022/06/26 06:02:08;;;;;;;;;;;;;;;;;;4976873;28;19956;-88
2022/06/26 06:04:34;;;;;;;;;;;;;;;;;;4966266;28;20024;-88
2022/06/26 06:06:59;;;;;;;;;;;;;;;;;;4966176;28;20328;-88
2022/06/26 06:09:25;;;;;;;;;;;;;;;;;;4962752;28;19924;-88
2022/06/26 06:11:51;;;;;;;;;;;;;;;;;;4962397;28;20000;-88
2022/06/26 06:14:17;;;;;;;;;;;;;;;;;;4964242;28;20357;-88
2022/06/26 06:16:43;;;;;;;;;;;;;;;;;;4981151;28;19921;-89
2022/06/26 06:19:09;;;;;;;;;;;;;;;;;;4966073;28;19924;-88
2022/06/26 06:21:35;;;;;;;;;;;;;;;;;;4966743;28;19913;-89
2022/06/26 06:24:01;;;;;;;;;;;;;;;;;;4978540;28;19917;-88
2022/06/26 06:26:27;;;;;;;;;;;;;;;;;;4969302;28;19937;-89
2022/06/26 06:28:53;;;;;;;;;;;;;;;;;;4968258;28;19948;-89
2022/06/26 06:31:19;;;;;;;;;;;;;;;;;;4968254;28;19964;-89
2022/06/26 06:33:46;;;;;;;;;;;;;;;;;;4971894;28;19910;-89
2022/06/26 06:36:12;;;;;;;;;;;;;;;;;;4969225;28;19913;-89
2022/06/26 06:38:38;;;;;;;;;;;;;;;;;;4971511;28;20004;-89
2022/06/26 06:41:04;;;;;;;;;;;;;;;;;;4968880;28;19913;-89
2022/06/26 06:43:30;;;;;;;;;;;;;;;;;;4967926;28;19917;-89
2022/06/26 06:45:56;;;;;;;;;;;;;;;;;;4987321;28;19940;-89
2022/06/26 06:48:24;;;;;;;;;;;;;;;;;;4964452;28;20361;-89
2022/06/26 06:50:50;;;;;;;;;;;;;;;;;;4964230;28;20021;-89
2022/06/26 06:53:16;;;;;;;;;;;;;;;;;;4964341;28;20417;-89
2022/06/26 06:55:42;;;;;;;;;;;;;;;;;;4983364;28;19913;-89
2022/06/26 06:58:08;;;;;;;;;;;;;;;;;;4968343;28;19918;-89
2022/06/26 07:00:34;;;;;;;;;;;;;;;;;;4976445;28;20056;-89
2022/06/26 07:03:00;;;;;;;;;;;;;;;;;;4977788;28;20004;-89
2022/06/26 07:05:26;;;;;;;;;;;;;;;;;;4978870;28;19922;-89
2022/06/26 07:07:52;;;;;;;;;;;;;;;;;;4982024;28;20131;-89
2022/06/26 07:10:18;;;;;;;;;;;;;;;;;;4967183;28;19910;-89
2022/06/26 07:12:44;;;;;;;;;;;;;;;;;;4979921;28;19924;-89
2022/06/26 07:15:10;;;;;;;;;;;;;;;;;;4961437;28;19913;-89
2022/06/26 07:17:36;;;;;;;;;;;;;;;;;;4965508;28;19926;-89
2022/06/26 07:20:02;;;;;;;;;;;;;;;;;;4963370;28;19918;-89
2022/06/26 07:22:28;;;;;;;;;;;;;;;;;;4965857;28;19914;-89
2022/06/26 07:24:53;;;;;;;;;;;;;;;;;;4978676;28;20520;-89
2022/06/26 07:27:19;;;;;;;;;;;;;;;;;;4965240;28;20266;-90
2022/06/26 07:29:45;;;;;;;;;;;;;;;;;;4970666;28;19910;-89
2022/06/26 07:32:11;;;;;;;;;;;;;;;;;;4987432;28;20032;-89
2022/06/26 07:34:37;;;;;;;;;;;;;;;;;;4964619;28;19991;-89
2022/06/26 07:37:03;;;;;;;;;;;;;;;;;;4968200;28;20334;-89
2022/06/26 07:39:29;;;;;;;;;;;;;;;;;;4977778;28;20392;-89
2022/06/26 07:41:55;;;;;;;;;;;;;;;;;;4967311;28;19918;-90
2022/06/26 07:44:21;;;;;;;;;;;;;;;;;;4961559;28;20344;-90
2022/06/26 07:46:47;;;;;;;;;;;;;;;;;;4970018;28;20302;-89
2022/06/26 07:49:13;;;;;;;;;;;;;;;;;;4958433;28;19957;-90
2022/06/26 07:51:39;;;;;;;;;;;;;;;;;;4958037;28;19917;-90
2022/06/26 07:54:05;;;;;;;;;;;;;;;;;;4980791;28;20063;-90
2022/06/26 07:56:31;;;;;;;;;;;;;;;;;;4969110;28;20429;-90
2022/06/26 07:58:57;;;;;;;;;;;;;;;;;;4965626;28;20028;-90
2022/06/26 08:01:23;;;;;;;;;;;;;;;;;;4964642;28;20365;-90
2022/06/26 08:03:49;;;;;;;;;;;;;;;;;;4974737;28;19914;-88
2022/06/26 08:06:15;;;;;;;;;;;;;;;;;;4966374;28;19929;-89
2022/06/26 08:08:40;;;;;;;;;;;;;;;;;;4981835;28;20120;-89
2022/06/26 08:11:06;;;;;;;;;;;;;;;;;;4966781;28;19925;-89
2022/06/26 08:13:32;;;;;;;;;;;;;;;;;;4965450;28;19925;-89
2022/06/26 08:15:58;;;;;;;;;;;;;;;;;;4963846;28;19918;-89
2022/06/26 08:18:24;;;;;;;;;;;;;;;;;;4961791;28;19996;-89
2022/06/26 08:20:50;;;;;;;;;;;;;;;;;;4968504;28;19914;-89
2022/06/26 08:23:17;;;;;;;;;;;;;;;;;;4978448;28;19921;-89
2022/06/26 08:25:43;;;;;;;;;;;;;;;;;;4962392;28;19917;-89
2022/06/26 08:28:09;;;;;;;;;;;;;;;;;;4962878;28;19917;-89
2022/06/26 08:30:35;;;;;;;;;;;;;;;;;;4967113;28;19918;-89
2022/06/26 08:33:01;;;;;;;;;;;;;;;;;;4961185;28;19914;-89
2022/06/26 08:35:27;;;;;;;;;;;;;;;;;;4964371;28;20415;-89
2022/06/26 08:37:53;;;;;;;;;;;;;;;;;;4964933;28;19921;-88
2022/06/26 08:40:19;;;;;;;;;;;;;;;;;;4983410;28;20293;-89
2022/06/26 08:42:44;;;;;;;;;;;;;;;;;;4981516;28;19910;-88
2022/06/26 08:45:12;;;;;;;;;;;;;;;;;;4977896;28;20222;-88
2022/06/26 08:47:39;;;;;;;;;;;;;;;;;;4964319;28;19972;-89
2022/06/26 08:50:05;;;;;;;;;;;;;;;;;;4962628;28;19910;-89
2022/06/26 08:52:31;;;;;;;;;;;;;;;;;;4966316;28;19976;-88
2022/06/26 08:54:57;;;;;;;;;;;;;;;;;;4979139;28;19916;-88
2022/06/26 08:57:23;;;;;;;;;;;;;;;;;;4984465;28;20312;-89
2022/06/26 08:59:49;;;;;;;;;;;;;;;;;;4966100;28;19918;-89
2022/06/26 09:02:15;;;;;;;;;;;;;;;;;;4960141;28;19914;-89
2022/06/26 09:04:44;;;;;;;;;;;;;;;;;;4980016;28;19917;-90
2022/06/26 09:07:10;;;;;;;;;;;;;;;;;;4979602;28;20388;-91
2022/06/26 09:09:36;;;;;;;;;;;;;;;;;;4984127;28;19914;-90
2022/06/26 09:12:01;;;;;;;;;;;;;;;;;;4964425;28;19932;-89
2022/06/26 09:14:27;;;;;;;;;;;;;;;;;;4964732;28;20000;-89
2022/06/26 09:16:53;;;;;;;;;;;;;;;;;;4968612;28;19913;-90
2022/06/26 09:19:20;;;;;;;;;;;;;;;;;;4964784;28;19906;-89
2022/06/26 09:21:46;;;;;;;;;;;;;;;;;;4969284;28;20368;-92
2022/06/26 09:24:12;;;;;;;;;;;;;;;;;;4984041;28;19920;-92
2022/06/26 09:26:38;;;;;;;;;;;;;;;;;;4971025;28;19996;-92
2022/06/26 09:29:04;;;;;;;;;;;;;;;;;;4971358;28;20497;-91
2022/06/26 09:31:30;;;;;;;;;;;;;;;;;;4964622;28;20112;-86
2022/06/26 09:33:56;;;;;;;;;;;;;;;;;;4963697;28;19913;-84
2022/06/26 09:36:21;;;;;;;;;;;;;;;;;;4977328;28;19968;-85
2022/06/26 09:38:48;;;;;;;;;;;;;;;;;;4964695;28;19914;-84
2022/06/26 09:41:14;;;;;;;;;;;;;;;;;;4963506;28;19914;-84
2022/06/26 09:43:39;;;;;;;;;;;;;;;;;;4980210;28;19914;-84
2022/06/26 09:46:05;;;;;;;;;;;;;;;;;;4963865;28;19929;-84
2022/06/26 09:48:31;;;;;;;;;;;;;;;;;;4962175;28;20300;-84
2022/06/26 09:50:57;;;;;;;;;;;;;;;;;;4965005;28;20415;-83
2022/06/26 09:53:23;;;;;;;;;;;;;;;;;;4970318;28;19933;-83
2022/06/26 09:55:56;;;;;;;;;;;;;;;;;;4960782;28;19925;-83
2022/06/26 09:58:22;;;;;;;;;;;;;;;;;;4960860;28;19952;-83
2022/06/26 10:06:26;;;;;;;;;;;;;;;;;;4979910;28;20330;-83
2022/06/26 10:08:52;;;;;;;;;;;;;;;;;;4978115;28;19924;-82
2022/06/26 10:11:18;;;;;;;;;;;;;;;;;;4963574;28;19909;-81
2022/06/26 10:13:44;;;;;;;;;;;;;;;;;;4962998;28;19917;-82
2022/06/26 10:16:10;;;;;;;;;;;;;;;;;;4965211;28;19975;-82
2022/06/26 10:18:37;;;;;;;;;;;;;;;;;;4962296;28;19961;-84
2022/06/26 10:21:03;;;;;;;;;;;;;;;;;;4971201;28;20371;-87
2022/06/26 10:23:29;;;;;;;;;;;;;;;;;;4962408;28;19913;-86
2022/06/26 10:25:55;;;;;;;;;;;;;;;;;;4962891;28;20008;-84
2022/06/26 10:28:21;;;;;;;;;;;;;;;;;;4969028;28;19941;-84
2022/06/26 10:30:47;;;;;;;;;;;;;;;;;;4954270;28;19921;-86
2022/06/26 10:33:19;;;;;;;;;;;;;;;;;;4969705;28;20397;-85
2022/06/26 10:35:45;;;;;;;;;;;;;;;;;;4960856;28;19964;-85
2022/06/26 10:38:11;;;;;;;;;;;;;;;;;;4975463;28;20012;-85
2022/06/26 10:43:21;;;;;;;;;;;;;;;;;;4976132;28;19928;-85
2022/06/26 10:45:47;;;;;;;;;;;;;;;;;;4977574;28;20008;-84
2022/06/26 10:48:13;;;;;;;;;;;;;;;;;;4958931;28;19925;-85
2022/06/26 10:50:39;;;;;;;;;;;;;;;;;;4982637;28;20418;-85
2022/06/26 10:53:05;;;;;;;;;;;;;;;;;;4960925;28;19918;-85
2022/06/26 10:55:31;;;;;;;;;;;;;;;;;;4970223;28;19957;-84
2022/06/26 10:57:57;;;;;;;;;;;;;;;;;;4975696;28;19937;-85
2022/06/26 11:00:23;;;;;;;;;;;;;;;;;;4980692;28;19917;-84
2022/06/26 11:02:49;;;;;;;;;;;;;;;;;;4963715;28;19913;-84
2022/06/26 11:05:15;;;;;;;;;;;;;;;;;;4960711;28;19918;-85
2022/06/26 11:07:41;;;;;;;;;;;;;;;;;;4964341;28;20339;-85
2022/06/26 11:10:07;;;;;;;;;;;;;;;;;;4960910;28;19910;-85
2022/06/26 11:12:33;;;;;;;;;;;;;;;;;;4962969;28;19914;-85
2022/06/26 11:14:59;;;;;;;;;;;;;;;;;;4977498;28;19914;-86
2022/06/26 11:17:25;;;;;;;;;;;;;;;;;;4966772;28;20564;-86
2022/06/26 11:22:38;;;;;;;;;;;;;;;;;;4982361;28;19972;-87
2022/06/26 11:25:04;;;;;;;;;;;;;;;;;;4968280;28;19917;-86
2022/06/26 11:27:30;;;;;;;;;;;;;;;;;;4962931;28;20321;-86
2022/06/26 11:29:56;;;;;;;;;;;;;;;;;;4965665;28;19910;-87
2022/06/26 11:32:22;;;;;;;;;;;;;;;;;;4964994;28;19949;-86
2022/06/26 11:34:48;;;;;;;;;;;;;;;;;;4978436;28;19914;-85
2022/06/26 11:37:14;;;;;;;;;;;;;;;;;;4982424;28;19909;-87
2022/06/26 11:39:40;;;;;;;;;;;;;;;;;;4981380;28;19913;-87
2022/06/26 11:42:06;;;;;;;;;;;;;;;;;;4967483;28;19910;-88
2022/06/26 11:44:32;;;;;;;;;;;;;;;;;;4970875;28;19924;-88
2022/06/26 11:46:58;;;;;;;;;;;;;;;;;;4970599;28;19914;-87
2022/06/26 11:49:25;;;;;;;;;;;;;;;;;;4969216;28;19917;-88
2022/06/26 11:51:51;;;;;;;;;;;;;;;;;;4983629;28;19964;-87
2022/06/26 11:54:17;;;;;;;;;;;;;;;;;;4967646;28;19917;-87
2022/06/26 11:56:43;;;;;;;;;;;;;;;;;;4996527;28;19960;-90
2022/06/26 11:59:09;;;;;;;;;;;;;;;;;;4985644;28;19914;-92
2022/06/26 12:01:35;;;;;;;;;;;;;;;;;;4986571;28;20052;-91
2022/06/26 12:04:01;;;;;;;;;;;;;;;;;;4983419;28;20389;-91
2022/06/26 12:06:26;;;;;;;;;;;;;;;;;;4983710;28;20010;-91
2022/06/26 12:08:52;;;;;;;;;;;;;;;;;;4999673;28;20321;-91
2022/06/26 12:11:18;;;;;;;;;;;;;;;;;;4987004;28;19909;-91
2022/06/26 12:13:44;;;;;;;;;;;;;;;;;;4969295;28;19913;-90
2022/06/26 12:16:10;;;;;;;;;;;;;;;;;;4969521;28;19913;-91
2022/06/26 12:18:36;;;;;;;;;;;;;;;;;;4966010;28;19914;-92
2022/06/26 12:21:02;;;;;;;;;;;;;;;;;;4961725;28;19960;-91
2022/06/26 12:23:28;;;;;;;;;;;;;;;;;;4982705;28;19913;-96
2022/06/26 12:25:54;;;;;;;;;;;;;;;;;;4964418;28;19924;-94
2022/06/26 12:28:20;;;;;;;;;;;;;;;;;;4977297;28;19913;-91
2022/06/26 12:30:46;;;;;;;;;;;;;;;;;;4981207;28;20012;-92
2022/06/26 12:33:12;;;;;;;;;;;;;;;;;;4967567;28;20277;-92
2022/06/26 12:35:38;;;;;;;;;;;;;;;;;;4967040;28;19913;-92
2022/06/26 12:38:03;;;;;;;;;;;;;;;;;;4964702;28;20433;-91
2022/06/26 12:40:29;;;;;;;;;;;;;;;;;;4965408;28;19914;-92
2022/06/26 12:42:56;;;;;;;;;;;;;;;;;;4972614;28;19918;-92
2022/06/26 12:45:22;;;;;;;;;;;;;;;;;;4978504;28;19914;-89
2022/06/26 12:47:48;;;;;;;;;;;;;;;;;;4980762;28;19921;-89
2022/06/26 12:50:14;;;;;;;;;;;;;;;;;;4981416;28;19921;-90
2022/06/26 12:52:40;;;;;;;;;;;;;;;;;;4982600;28;19921;-90
2022/06/26 12:55:06;;;;;;;;;;;;;;;;;;4977514;28;19910;-91
2022/06/26 12:57:32;;;;;;;;;;;;;;;;;;4972225;28;19971;-88
2022/06/26 12:59:58;;;;;;;;;;;;;;;;;;4955956;28;20000;-88
2022/06/26 13:02:24;;;;;;;;;;;;;;;;;;4980672;28;19914;-89
2022/06/26 13:04:51;;;;;;;;;;;;;;;;;;4965066;28;20206;-93
2022/06/26 13:07:17;;;;;;;;;;;;;;;;;;4965981;28;19949;-94
2022/06/26 13:09:43;;;;;;;;;;;;;;;;;;4992904;28;19965;-89
2022/06/26 13:12:09;;;;;;;;;;;;;;;;;;4980749;28;19910;-90
2022/06/26 13:14:35;;;;;;;;;;;;;;;;;;4966799;28;20008;-92
2022/06/26 13:17:01;;;;;;;;;;;;;;;;;;4966137;28;19971;-92
2022/06/26 13:19:27;;;;;;;;;;;;;;;;;;4966314;28;20325;-92
2022/06/26 13:21:53;;;;;;;;;;;;;;;;;;4973203;28;19909;-91
2022/06/26 13:24:19;;;;;;;;;;;;;;;;;;4974937;28;19938;-92
2022/06/26 13:26:47;;;;;;;;;;;;;;;;;;4966354;28;19920;-91
2022/06/26 13:29:13;;;;;;;;;;;;;;;;;;4977923;28;20092;-91
2022/06/26 13:31:41;;;;;;;;;;;;;;;;;;4967883;28;19910;-92
2022/06/26 13:34:07;;;;;;;;;;;;;;;;;;4981689;28;20485;-92
2022/06/26 13:36:33;;;;;;;;;;;;;;;;;;4982267;28;19918;-93
2022/06/26 13:38:59;;;;;;;;;;;;;;;;;;4979764;28;20369;-92
2022/06/26 13:41:25;;;;;;;;;;;;;;;;;;4965896;28;19940;-92
2022/06/26 13:43:54;;;;;;;;;;;;;;;;;;4980042;28;20361;-91
2022/06/26 13:46:20;;;;;;;;;;;;;;;;;;4966165;28;20028;-92
2022/06/26 13:48:46;;;;;;;;;;;;;;;;;;4963430;28;19968;-93
2022/06/26 13:51:12;;;;;;;;;;;;;;;;;;4970550;28;20623;-91
2022/06/26 13:53:38;;;;;;;;;;;;;;;;;;4980474;28;19917;-91
2022/06/26 13:56:04;;;;;;;;;;;;;;;;;;4961825;28;19944;-91
2022/06/26 13:58:30;;;;;;;;;;;;;;;;;;4982015;28;19921;-91
2022/06/26 14:00:56;;;;;;;;;;;;;;;;;;4983111;28;19917;-92
2022/06/26 14:03:23;;;;;;;;;;;;;;;;;;4960413;28;20554;-91
2022/06/26 14:05:49;;;;;;;;;;;;;;;;;;4974666;28;19918;-93
2022/06/26 14:08:14;;;;;;;;;;;;;;;;;;4979400;28;19913;-91
2022/06/26 14:10:40;;;;;;;;;;;;;;;;;;4966585;28;19933;-90
2022/06/26 14:13:06;;;;;;;;;;;;;;;;;;4964974;28;19957;-92
2022/06/26 14:15:32;;;;;;;;;;;;;;;;;;4980760;28;19914;-91
2022/06/26 14:17:58;;;;;;;;;;;;;;;;;;4962307;28;19910;-92
2022/06/26 14:20:24;;;;;;;;;;;;;;;;;;4972423;28;20027;-93
2022/06/26 14:28:19;;;;;;;;;;;;;;;;;;4980993;28;19941;-91
2022/06/26 14:30:45;;;;;;;;;;;;;;;;;;4974178;28;19918;-91
2022/06/26 14:33:15;;;;;;;;;;;;;;;;;;4964020;28;19953;-92
2022/06/26 14:35:41;;;;;;;;;;;;;;;;;;4963714;28;19921;-92
2022/06/26 14:38:07;;;;;;;;;;;;;;;;;;4963252;28;19906;-91
2022/06/26 14:40:33;;;;;;;;;;;;;;;;;;4963852;28;19944;-92
2022/06/26 14:42:59;;;;;;;;;;;;;;;;;;4964528;28;20004;-91
2022/06/26 14:45:25;;;;;;;;;;;;;;;;;;4967035;28;19925;-88
2022/06/26 14:47:51;;;;;;;;;;;;;;;;;;4962580;28;19918;-91
2022/06/26 14:50:16;;;;;;;;;;;;;;;;;;4971427;28;19910;-92
2022/06/26 14:52:42;;;;;;;;;;;;;;;;;;4966918;28;20292;-92
2022/06/26 14:55:08;;;;;;;;;;;;;;;;;;4982025;28;19918;-92
2022/06/26 14:57:34;;;;;;;;;;;;;;;;;;4980751;28;19945;-92
2022/06/26 15:00:00;;;;;;;;;;;;;;;;;;4964310;28;20397;-91
2022/06/26 15:02:26;;;;;;;;;;;;;;;;;;4968999;28;20449;-90
2022/06/26 15:04:52;;;;;;;;;;;;;;;;;;4966703;28;19920;-92
2022/06/26 15:07:18;;;;;;;;;;;;;;;;;;4966346;28;20353;-92
2022/06/26 15:09:44;;;;;;;;;;;;;;;;;;4994531;28;19914;-92
2022/06/26 15:12:10;;;;;;;;;;;;;;;;;;4984264;28;19999;-93
2022/06/26 15:14:36;;;;;;;;;;;;;;;;;;4975962;28;20353;-92
2022/06/26 15:17:02;;;;;;;;;;;;;;;;;;4982429;28;19963;-91
2022/06/26 15:19:28;;;;;;;;;;;;;;;;;;4968337;28;20486;-93
2022/06/26 15:21:53;;;;;;;;;;;;;;;;;;4981074;28;20376;-93
2022/06/26 15:24:19;;;;;;;;;;;;;;;;;;4971696;28;19960;-92
2022/06/26 15:26:45;;;;;;;;;;;;;;;;;;4968530;28;20057;-93
2022/06/26 15:29:11;;;;;;;;;;;;;;;;;;4971118;28;20080;-93
2022/06/26 15:31:37;;;;;;;;;;;;;;;;;;4983075;28;19987;-93
2022/06/26 15:34:09;;;;;;;;;;;;;;;;;;4970798;28;19914;-93
2022/06/26 15:36:35;;;;;;;;;;;;;;;;;;4967330;28;19917;-92
2022/06/26 15:39:01;;;;;;;;;;;;;;;;;;4985201;28;19910;-93
2022/06/26 15:41:29;;;;;;;;;;;;;;;;;;4968216;28;19913;-95
2022/06/26 15:43:55;;;;;;;;;;;;;;;;;;4978518;28;19910;-92
2022/06/26 15:46:20;;;;;;;;;;;;;;;;;;4988787;28;19924;-95
2022/06/26 15:48:46;;;;;;;;;;;;;;;;;;4986505;28;19917;-96
2022/06/26 15:51:13;;;;;;;;;;;;;;;;;;4960062;28;20285;-96
2022/06/26 15:53:40;;;;;;;;;;;;;;;;;;4975220;28;19972;-96
2022/06/26 15:56:06;;;;;;;;;;;;;;;;;;4980395;28;19918;-94
2022/06/26 15:58:32;;;;;;;;;;;;;;;;;;4986423;28;20032;-95
2022/06/26 16:00:58;;;;;;;;;;;;;;;;;;4971100;28;20332;-96
2022/06/26 16:03:24;;;;;;;;;;;;;;;;;;4969414;28;19917;-94
2022/06/26 16:05:50;;;;;;;;;;;;;;;;;;4988240;28;19976;-96
2022/06/26 16:08:16;;;;;;;;;;;;;;;;;;4973542;28;19964;-93
2022/06/26 16:10:42;;;;;;;;;;;;;;;;;;4972348;28;19964;-93
2022/06/26 16:13:08;;;;;;;;;;;;;;;;;;4983892;28;19914;-94
2022/06/26 16:15:34;;;;;;;;;;;;;;;;;;4973009;28;19917;-94
2022/06/26 16:18:00;;;;;;;;;;;;;;;;;;4967582;28;20037;-90
2022/06/26 16:20:26;;;;;;;;;;;;;;;;;;4969101;28;19989;-90
2022/06/26 16:28:21;;;;;;;;;;;;;;;;;;4979126;28;19940;-88
2022/06/26 16:30:47;;;;;;;;;;;;;;;;;;4962549;28;19921;-88
2022/06/26 16:33:14;;;;;;;;;;;;;;;;;;4964088;28;19917;-87
2022/06/26 16:35:40;;;;;;;;;;;;;;;;;;4979944;28;20000;-88
2022/06/26 16:38:05;;;;;;;;;;;;;;;;;;4964043;28;20032;-89
2022/06/26 16:40:31;;;;;;;;;;;;;;;;;;4965836;28;19914;-88
2022/06/26 16:42:58;;;;;;;;;;;;;;;;;;4967257;28;19949;-89
2022/06/26 16:45:24;;;;;;;;;;;;;;;;;;4958915;28;20368;-88
2022/06/26 16:47:50;;;;;;;;;;;;;;;;;;4975884;28;19960;-89
2022/06/26 16:50:16;;;;;;;;;;;;;;;;;;4959407;28;19917;-88
2022/06/26 16:52:42;;;;;;;;;;;;;;;;;;4963103;28;19936;-89
2022/06/26 16:55:08;;;;;;;;;;;;;;;;;;4964740;28;19914;-88
2022/06/26 16:57:34;;;;;;;;;;;;;;;;;;4963261;28;19910;-88
2022/06/26 17:00:00;;;;;;;;;;;;;;;;;;4975850;28;19980;-89
2022/06/26 17:02:26;;;;;;;;;;;;;;;;;;4961094;28;19913;-89
2022/06/26 17:04:52;;;;;;;;;;;;;;;;;;4980412;28;19952;-89